KNLC/NLC METAR and TAF weather

Enter ICAO airport designator
Station Type Date Time Source
KNLC METAR 2021/07/28 19:56 UTC NOAA

KNLC 281956Z 33009KT 7SM SCT140 SCT190 36/13 A2996 RMK AO2 SLP143 VIRGA NW RH/25 T03560128


Station Type Date Time Source
KNLC Decoded METAR 2021/07/28 19:56 UTC NOAA

LEMOORE NAVAL AIR STATION, CA, United States (KNLC) 36-20N 119-57W 72M
Jul 28, 2021 - 03:56 PM EDT / 2021.07.28 1956 UTC
Wind: from the NNW (330 degrees) at 10 MPH (9 KT):0
Visibility: 7 mile(s):0
Sky conditions: partly cloudy
Temperature: 96.1 F (35.6 C)
Heat index: 94.1 F (34.5 C):1
Dew Point: 55.0 F (12.8 C)
Relative Humidity: 25%
Pressure (altimeter): 29.96 in. Hg (1014 hPa)
ob: KNLC 281956Z 33009KT 7SM SCT140 SCT190 36/13 A2996 RMK AO2 SLP143 VIRGA NW RH/25 T03560128
cycle: 20

Station Type Date Time Source
KNLC TAF 2021/07/28 15:48 UTC NOAA

TAF TAF KNLC 2815/2915 VRB06KT 9999 FEW065 SCT130 BKN140 BKN200 QNH2995INS
TEMPO 2815/2820 35009KT
FM282000 33008KT 9999 FEW130 SCT140 BKN220 QNH2985INS
FM282300 35010KT 9999 FEW140 SCT230 QNH2980INS
FM290300 31008KT 9999 FEW150 FEW220 QNH2982INS T39/2823Z T21/2912Z FS30067

Example: see airport list